createdAt,value
2023-01-10T00:00:35.239Z,8.70
2023-01-10T00:03:21.271Z,8.60
2023-01-10T00:06:07.366Z,8.50
2023-01-10T00:08:52.874Z,8.60
2023-01-10T00:11:56.972Z,8.60
2023-01-10T00:14:43.146Z,8.60
2023-01-10T00:17:29.357Z,8.60
2023-01-10T00:20:15.846Z,8.50
2023-01-10T00:23:01.510Z,8.50
2023-01-10T00:25:47.151Z,8.40
2023-01-10T00:28:36.057Z,8.40
2023-01-10T00:31:21.831Z,8.40
2023-01-10T00:34:08.105Z,8.30
2023-01-10T00:36:53.670Z,8.30
2023-01-10T00:39:39.625Z,8.30
2023-01-10T00:42:44.081Z,8.30
2023-01-10T00:45:29.982Z,8.40
2023-01-10T00:48:17.258Z,8.40
2023-01-10T00:51:03.526Z,8.50
2023-01-10T00:53:49.177Z,8.40
2023-01-10T00:56:34.799Z,8.90
2023-01-10T00:59:20.304Z,8.40
2023-01-10T01:02:06.107Z,8.50
2023-01-10T01:04:52.126Z,8.50
2023-01-10T01:07:37.930Z,8.40
2023-01-10T01:10:29.362Z,8.20
2023-01-10T01:13:18.160Z,8.10
2023-01-10T01:16:04.490Z,7.80
2023-01-10T01:18:50.068Z,7.80
2023-01-10T01:21:35.699Z,8.00
2023-01-10T01:24:21.452Z,8.00
2023-01-10T01:27:07.104Z,7.80
2023-01-10T01:29:55.548Z,7.80
2023-01-10T01:32:41.408Z,7.80
2023-01-10T01:35:27.533Z,7.90
2023-01-10T01:38:13.742Z,7.80
2023-01-10T01:40:59.262Z,7.60
2023-01-10T01:44:03.856Z,7.40
2023-01-10T01:46:57.292Z,7.50
2023-01-10T01:49:45.192Z,7.70
2023-01-10T01:52:34.822Z,8.00
2023-01-10T01:55:21.659Z,8.00
2023-01-10T01:58:12.681Z,8.10
2023-01-10T02:00:58.701Z,8.00
2023-01-10T02:03:49.674Z,8.10
2023-01-10T02:06:35.243Z,8.30
2023-01-10T02:09:49.368Z,8.30
2023-01-10T02:12:35.833Z,8.20
2023-01-10T02:15:21.908Z,7.90
2023-01-10T02:18:08.270Z,7.80
2023-01-10T02:21:24.007Z,8.10
2023-01-10T02:24:42.045Z,8.00
2023-01-10T02:27:39.765Z,8.20
2023-01-10T02:30:47.694Z,7.90
2023-01-10T02:33:36.651Z,7.60
2023-01-10T02:36:37.466Z,7.80
2023-01-10T02:39:40.285Z,8.00
2023-01-10T02:42:50.037Z,7.90
2023-01-10T02:45:42.783Z,8.00
2023-01-10T02:48:28.766Z,8.20
2023-01-10T02:51:30.059Z,8.30
2023-01-10T02:54:30.817Z,8.40
2023-01-10T02:57:36.505Z,8.60
2023-01-10T03:00:43.717Z,8.40
2023-01-10T03:03:57.213Z,8.20
2023-01-10T03:07:07.137Z,8.30
2023-01-10T03:10:07.552Z,8.50
2023-01-10T03:12:58.999Z,8.50
2023-01-10T03:15:48.175Z,8.30
2023-01-10T03:18:47.774Z,8.10
2023-01-10T03:21:36.180Z,8.30
2023-01-10T03:24:28.688Z,8.40
2023-01-10T03:27:39.115Z,8.20
2023-01-10T03:30:45.514Z,8.50
2023-01-10T03:33:33.539Z,8.70
2023-01-10T03:36:28.096Z,8.70
2023-01-10T03:39:37.258Z,8.80
2023-01-10T03:43:09.734Z,8.90
2023-01-10T03:46:10.732Z,9.20
2023-01-10T03:48:58.045Z,9.30
2023-01-10T03:51:44.473Z,9.50
2023-01-10T03:54:30.850Z,9.60
2023-01-10T03:57:18.946Z,9.80
2023-01-10T04:00:05.055Z,9.90
2023-01-10T04:02:50.841Z,10.00
2023-01-10T04:05:36.872Z,10.10
2023-01-10T04:08:22.772Z,10.20
2023-01-10T04:11:08.550Z,10.30
2023-01-10T04:13:54.756Z,10.30
2023-01-10T04:16:40.218Z,10.40
2023-01-10T04:19:26.201Z,10.40
2023-01-10T04:22:12.588Z,10.60
2023-01-10T04:24:58.177Z,10.60
2023-01-10T04:27:43.696Z,10.50
2023-01-10T04:30:29.244Z,10.60
2023-01-10T04:33:14.877Z,10.60
2023-01-10T04:36:00.550Z,10.60
2023-01-10T04:38:46.538Z,10.60
2023-01-10T04:41:32.167Z,10.50
2023-01-10T04:44:17.751Z,10.60
2023-01-10T04:47:03.619Z,10.60
2023-01-10T04:49:48.942Z,10.50
2023-01-10T04:52:34.412Z,10.50
2023-01-10T04:55:20.405Z,10.60
2023-01-10T04:58:05.848Z,10.70
2023-01-10T05:00:52.599Z,10.60
2023-01-10T05:03:38.443Z,10.60
2023-01-10T05:06:25.384Z,10.70
2023-01-10T05:09:11.060Z,10.80
2023-01-10T05:11:56.767Z,10.70
2023-01-10T05:14:42.389Z,10.80
2023-01-10T05:17:28.279Z,10.80
2023-01-10T05:20:14.182Z,9.30
2023-01-10T05:23:00.951Z,10.90
2023-01-10T05:25:46.419Z,10.90
2023-01-10T05:28:32.040Z,10.90
2023-01-10T05:31:20.066Z,11.00
2023-01-10T05:34:05.708Z,11.00
2023-01-10T05:36:51.697Z,11.00
2023-01-10T05:39:37.611Z,10.90
2023-01-10T05:42:23.254Z,11.00
2023-01-10T05:45:09.320Z,11.00
2023-01-10T05:47:54.737Z,11.00
2023-01-10T05:50:40.365Z,11.00
2023-01-10T05:53:27.199Z,11.00
2023-01-10T05:56:12.636Z,11.00
2023-01-10T05:59:06.593Z,11.00
2023-01-10T06:01:57.648Z,11.00
2023-01-10T06:04:43.744Z,11.00
2023-01-10T06:07:29.880Z,11.00
2023-01-10T06:10:16.280Z,11.00
2023-01-10T06:13:01.798Z,11.00
2023-01-10T06:15:48.129Z,11.00
2023-01-10T06:18:33.966Z,10.90
2023-01-10T06:21:19.529Z,10.90
2023-01-10T06:24:05.649Z,11.00
2023-01-10T06:26:51.283Z,10.70
2023-01-10T06:29:38.102Z,10.90
2023-01-10T06:32:24.040Z,10.90
2023-01-10T06:35:10.112Z,10.90
2023-01-10T06:37:56.358Z,10.90
2023-01-10T06:40:43.980Z,10.90
2023-01-10T06:43:31.108Z,10.90
2023-01-10T06:46:19.773Z,10.90
2023-01-10T06:49:05.749Z,10.90
2023-01-10T06:51:53.850Z,10.80
2023-01-10T06:54:41.645Z,11.10
2023-01-10T06:57:28.914Z,10.90
2023-01-10T07:00:16.082Z,10.80
2023-01-10T07:03:05.533Z,10.90
2023-01-10T07:05:51.490Z,10.90
2023-01-10T07:08:43.167Z,10.80
2023-01-10T07:11:29.110Z,10.80
2023-01-10T07:14:15.376Z,10.90
2023-01-10T07:17:01.133Z,10.80
2023-01-10T07:19:47.181Z,10.70
2023-01-10T07:22:33.141Z,10.70
2023-01-10T07:25:19.986Z,10.10
2023-01-10T07:28:07.606Z,10.70
2023-01-10T07:30:53.648Z,10.80
2023-01-10T07:33:39.919Z,10.80
2023-01-10T07:36:25.602Z,10.90
2023-01-10T07:39:11.932Z,10.90
2023-01-10T07:41:57.777Z,10.90
2023-01-10T07:44:44.121Z,10.90
2023-01-10T07:47:32.656Z,10.90
2023-01-10T07:50:20.661Z,10.90
2023-01-10T07:53:11.673Z,10.90
2023-01-10T07:56:03.679Z,10.90
2023-01-10T07:58:49.843Z,10.90
2023-01-10T08:01:35.931Z,11.00
2023-01-10T08:04:21.650Z,11.10
2023-01-10T08:07:08.153Z,11.20
2023-01-10T08:09:54.169Z,11.20
2023-01-10T08:12:41.018Z,11.30
2023-01-10T08:15:27.689Z,11.40
2023-01-10T08:18:17.203Z,11.40
2023-01-10T08:21:03.376Z,11.40
2023-01-10T08:23:51.773Z,11.50
2023-01-10T08:26:38.058Z,11.50
2023-01-10T08:29:23.782Z,11.50
2023-01-10T08:32:10.239Z,11.70
2023-01-10T08:34:56.196Z,11.70
2023-01-10T08:37:42.218Z,11.60
2023-01-10T08:40:28.211Z,11.80
2023-01-10T08:43:17.767Z,11.80
2023-01-10T08:46:04.381Z,11.80
2023-01-10T08:48:52.922Z,11.90
2023-01-10T08:51:39.088Z,12.00
2023-01-10T08:54:28.004Z,12.10
2023-01-10T08:57:15.794Z,12.10
2023-01-10T09:00:02.400Z,12.10
2023-01-10T09:02:48.564Z,12.10
2023-01-10T09:05:34.251Z,12.10
2023-01-10T09:08:19.799Z,12.20
2023-01-10T09:11:06.500Z,12.20
2023-01-10T09:13:52.479Z,12.20
2023-01-10T09:16:38.338Z,12.30
2023-01-10T09:19:24.905Z,12.30
2023-01-10T09:22:12.855Z,12.40
2023-01-10T09:24:59.597Z,12.40
2023-01-10T09:27:46.046Z,12.60
2023-01-10T09:30:34.506Z,11.40
2023-01-10T09:33:28.089Z,13.30
2023-01-10T09:36:17.494Z,16.10
2023-01-10T09:39:13.977Z,16.90
2023-01-10T09:42:28.797Z,16.60
2023-01-10T09:45:32.309Z,17.00
2023-01-10T09:48:26.519Z,17.90
2023-01-10T09:51:13.051Z,17.20
2023-01-10T09:54:11.345Z,15.60
2023-01-10T09:57:01.401Z,14.30
2023-01-10T09:59:55.449Z,13.70
2023-01-10T10:02:46.917Z,14.70
2023-01-10T10:05:34.765Z,16.30
2023-01-10T10:08:21.980Z,17.00
2023-01-10T10:11:21.440Z,16.10
2023-01-10T10:18:24.834Z,14.50
2023-01-10T10:21:18.234Z,13.90
2023-01-10T10:24:36.081Z,13.80
2023-01-10T10:27:32.116Z,13.50
2023-01-10T10:30:21.492Z,13.50
2023-01-10T10:33:42.784Z,13.30
2023-01-10T10:43:00.725Z,13.50
2023-01-10T10:45:59.458Z,13.50
2023-01-10T10:48:56.591Z,13.40
2023-01-10T10:51:53.576Z,13.30
2023-01-10T10:54:39.550Z,13.50
2023-01-10T10:57:30.836Z,13.60
2023-01-10T11:00:22.386Z,13.70
2023-01-10T11:03:07.972Z,13.70
2023-01-10T11:05:54.786Z,13.70
2023-01-10T11:08:44.283Z,13.60
2023-01-10T11:11:39.865Z,13.60
2023-01-10T11:14:41.635Z,13.70
2023-01-10T11:17:30.392Z,13.70
2023-01-10T11:20:17.418Z,13.80
2023-01-10T11:23:04.407Z,13.70
2023-01-10T11:25:50.626Z,13.80
2023-01-10T11:28:37.836Z,13.80
2023-01-10T11:31:28.500Z,13.90
2023-01-10T11:34:30.707Z,13.90
2023-01-10T11:37:47.948Z,14.00
2023-01-10T11:40:36.746Z,14.00
2023-01-10T11:43:38.009Z,14.10
2023-01-10T11:46:26.165Z,14.10
2023-01-10T11:49:21.889Z,14.10
2023-01-10T11:52:22.786Z,14.10
2023-01-10T11:55:09.165Z,14.20
2023-01-10T11:58:09.086Z,14.20
2023-01-10T12:00:58.728Z,14.30
2023-01-10T12:03:47.291Z,14.30
2023-01-10T12:06:34.436Z,14.20
2023-01-10T12:09:44.758Z,14.30
2023-01-10T12:12:33.692Z,14.30
2023-01-10T12:15:31.173Z,14.20
2023-01-10T12:18:18.355Z,14.20
2023-01-10T12:21:05.702Z,14.20
2023-01-10T12:23:55.329Z,14.20
2023-01-10T12:26:42.611Z,14.20
2023-01-10T12:29:35.754Z,14.30
2023-01-10T12:32:26.670Z,14.30
2023-01-10T12:35:18.957Z,14.30
2023-01-10T12:38:52.776Z,14.30
2023-01-10T12:42:01.366Z,14.30
2023-01-10T12:44:52.919Z,14.40
2023-01-10T12:47:53.577Z,14.40
2023-01-10T12:50:46.515Z,14.40
2023-01-10T12:53:41.201Z,14.50
2023-01-10T12:56:27.840Z,14.60
2023-01-10T12:59:37.127Z,14.60
2023-01-10T13:02:29.053Z,14.60
2023-01-10T13:05:27.315Z,14.70
2023-01-10T13:08:15.986Z,14.60
2023-01-10T13:11:03.185Z,14.50
2023-01-10T13:13:55.775Z,14.60
2023-01-10T13:16:55.232Z,14.70
2023-01-10T13:19:41.811Z,14.70
2023-01-10T13:22:29.591Z,14.70
2023-01-10T13:25:35.967Z,14.70
2023-01-10T13:28:26.180Z,14.70
2023-01-10T13:31:27.223Z,14.70
2023-01-10T13:34:15.530Z,14.70
2023-01-10T13:37:14.436Z,14.70
2023-01-10T13:40:01.375Z,14.70
2023-01-10T13:43:19.166Z,14.90
2023-01-10T13:46:17.592Z,14.80
2023-01-10T13:49:03.783Z,14.70
2023-01-10T13:52:27.133Z,14.80
2023-01-10T13:55:29.517Z,14.80
2023-01-10T13:58:41.236Z,14.80
2023-01-10T14:01:52.065Z,14.70
2023-01-10T14:04:49.379Z,14.80
2023-01-10T14:07:47.430Z,14.70
2023-01-10T14:10:33.607Z,14.70
2023-01-10T14:13:22.606Z,14.70
2023-01-10T14:16:27.107Z,14.70
2023-01-10T14:19:32.553Z,14.70
2023-01-10T14:22:31.171Z,14.80
2023-01-10T14:25:22.269Z,14.90
2023-01-10T14:28:26.230Z,14.80
2023-01-10T14:31:21.833Z,14.70
2023-01-10T14:34:13.837Z,14.70
2023-01-10T14:37:03.178Z,14.70
2023-01-10T14:39:49.343Z,14.70
2023-01-10T14:42:36.235Z,14.70
2023-01-10T14:45:34.765Z,14.60
2023-01-10T14:48:32.785Z,14.60
2023-01-10T14:51:24.502Z,14.60
2023-01-10T14:54:13.513Z,14.50
2023-01-10T14:56:59.235Z,14.50
2023-01-10T14:59:45.589Z,14.60
2023-01-10T15:02:32.013Z,14.70
2023-01-10T15:05:23.502Z,14.60
2023-01-10T15:08:21.723Z,14.70
2023-01-10T15:11:12.483Z,14.70
2023-01-10T15:14:05.198Z,14.70
2023-01-10T15:16:55.483Z,14.80
2023-01-10T15:19:41.668Z,14.60
2023-01-10T15:22:37.298Z,14.60
2023-01-10T15:25:38.193Z,14.70
2023-01-10T15:28:24.197Z,14.50
2023-01-10T15:31:11.491Z,14.50
2023-01-10T15:33:58.809Z,14.50
2023-01-10T15:36:51.677Z,14.50
2023-01-10T15:39:40.127Z,14.40
2023-01-10T15:42:26.542Z,14.40
2023-01-10T15:45:40.037Z,14.30
2023-01-10T15:48:33.820Z,14.30
2023-01-10T15:51:41.739Z,14.10
2023-01-10T15:54:32.064Z,14.00
2023-01-10T15:57:32.674Z,13.90
2023-01-10T16:00:19.108Z,13.90
2023-01-10T16:03:23.144Z,13.80
2023-01-10T16:06:26.483Z,13.70
2023-01-10T16:09:20.988Z,13.60
2023-01-10T16:12:49.506Z,13.40
2023-01-10T16:15:40.244Z,13.30
2023-01-10T16:18:26.629Z,13.30
2023-01-10T16:21:14.416Z,13.30
2023-01-10T16:24:00.036Z,13.30
2023-01-10T16:26:47.497Z,13.20
2023-01-10T16:29:33.963Z,12.90
2023-01-10T16:32:20.311Z,12.90
2023-01-10T16:35:06.527Z,12.80
2023-01-10T16:37:57.833Z,12.50
2023-01-10T16:41:22.506Z,12.50
2023-01-10T16:44:08.511Z,12.50
2023-01-10T16:46:54.368Z,12.40
2023-01-10T16:49:41.819Z,12.40
2023-01-10T16:52:27.321Z,12.30
2023-01-10T16:55:18.281Z,12.30
2023-01-10T16:58:04.066Z,12.30
2023-01-10T17:00:52.946Z,12.20
2023-01-10T17:03:39.960Z,12.10
2023-01-10T17:06:25.822Z,12.20
2023-01-10T17:09:24.805Z,12.10
2023-01-10T17:12:20.008Z,12.10
2023-01-10T17:15:08.437Z,12.10
2023-01-10T17:17:55.315Z,12.00
2023-01-10T17:20:41.413Z,12.00
2023-01-10T17:23:29.492Z,12.00
2023-01-10T17:26:17.179Z,12.00
2023-01-10T17:29:02.755Z,12.00
2023-01-10T17:31:48.743Z,11.90
2023-01-10T17:34:38.644Z,11.90
2023-01-10T17:37:24.280Z,11.70
2023-01-10T17:40:10.687Z,11.80
2023-01-10T17:42:56.508Z,11.90
2023-01-10T17:45:43.905Z,11.90
2023-01-10T17:48:29.368Z,11.80
2023-01-10T17:51:15.139Z,11.80
2023-01-10T17:54:01.383Z,11.80
2023-01-10T17:56:47.958Z,11.70
2023-01-10T17:59:33.913Z,11.70
2023-01-10T18:02:20.194Z,11.70
2023-01-10T18:05:06.888Z,11.80
2023-01-10T18:07:52.979Z,11.90
2023-01-10T18:10:38.489Z,11.80
2023-01-10T18:13:24.189Z,11.60
2023-01-10T18:16:09.693Z,11.50
2023-01-10T18:18:56.196Z,11.30
2023-01-10T18:21:42.051Z,11.20
2023-01-10T18:24:28.196Z,11.40
2023-01-10T18:27:14.143Z,11.40
2023-01-10T18:30:00.725Z,11.30
2023-01-10T18:32:46.230Z,12.20
2023-01-10T18:35:31.598Z,11.30
2023-01-10T18:38:17.734Z,11.30
2023-01-10T18:41:04.318Z,11.10
2023-01-10T18:43:50.046Z,10.90
2023-01-10T18:46:36.099Z,11.00
2023-01-10T18:49:21.880Z,11.10
2023-01-10T18:52:07.649Z,10.00
2023-01-10T18:54:53.796Z,11.10
2023-01-10T18:57:39.651Z,11.00
2023-01-10T19:00:25.772Z,10.90
2023-01-10T19:03:11.723Z,11.00
2023-01-10T19:06:00.685Z,11.00
2023-01-10T19:08:47.226Z,10.90
2023-01-10T19:11:33.149Z,10.90
2023-01-10T19:14:19.577Z,10.80
2023-01-10T19:17:05.323Z,10.80
2023-01-10T19:19:51.436Z,10.80
2023-01-10T19:22:37.249Z,10.60
2023-01-10T19:25:23.156Z,10.50
2023-01-10T19:28:13.149Z,10.60
2023-01-10T19:31:04.624Z,10.70
2023-01-10T19:33:52.079Z,10.90
2023-01-10T19:36:39.504Z,10.80
2023-01-10T19:39:25.001Z,10.50
2023-01-10T19:42:10.818Z,10.50
2023-01-10T19:44:56.424Z,10.50
2023-01-10T19:47:42.072Z,10.60
2023-01-10T19:50:27.868Z,10.60
2023-01-10T19:53:13.758Z,10.50
2023-01-10T19:56:04.614Z,10.10
2023-01-10T19:58:50.961Z,10.00
2023-01-10T20:01:36.629Z,9.70
2023-01-10T20:04:22.091Z,9.80
2023-01-10T20:07:08.079Z,9.80
2023-01-10T20:09:58.641Z,9.70
2023-01-10T20:12:44.280Z,9.40
2023-01-10T20:15:29.936Z,9.00
2023-01-10T20:18:15.617Z,8.80
2023-01-10T20:21:04.989Z,9.00
2023-01-10T20:23:50.993Z,9.20
2023-01-10T20:26:36.761Z,8.80
2023-01-10T20:29:22.433Z,9.00
2023-01-10T20:32:08.352Z,9.30
2023-01-10T20:34:54.156Z,9.30
2023-01-10T20:37:39.749Z,9.30
2023-01-10T20:40:26.158Z,9.40
2023-01-10T20:43:12.351Z,9.20
2023-01-10T20:46:04.597Z,9.20
2023-01-10T20:48:51.163Z,9.30
2023-01-10T20:51:37.594Z,9.10
2023-01-10T20:54:23.532Z,8.80
2023-01-10T20:57:09.400Z,8.60
2023-01-10T20:59:55.330Z,8.40
2023-01-10T21:02:40.829Z,8.30
2023-01-10T21:05:26.930Z,8.30
2023-01-10T21:08:12.674Z,8.50
2023-01-10T21:10:59.011Z,8.80
2023-01-10T21:13:44.976Z,8.90
2023-01-10T21:16:30.653Z,8.80
2023-01-10T21:19:16.483Z,8.70
2023-01-10T21:22:02.217Z,8.70
2023-01-10T21:24:48.548Z,8.70
2023-01-10T21:27:34.388Z,8.70
2023-01-10T21:30:20.189Z,8.50
2023-01-10T21:33:06.712Z,8.50
2023-01-10T21:35:57.867Z,8.50
2023-01-10T21:38:45.065Z,8.60
2023-01-10T21:41:49.347Z,8.50
2023-01-10T21:44:35.022Z,8.30
2023-01-10T21:47:20.589Z,8.30
2023-01-10T21:50:08.905Z,8.40
2023-01-10T21:52:54.699Z,8.40
2023-01-10T21:55:44.003Z,8.50
2023-01-10T21:58:29.923Z,8.70
2023-01-10T22:01:16.022Z,8.90
2023-01-10T22:04:02.009Z,8.70
2023-01-10T22:06:48.370Z,8.50
2023-01-10T22:09:34.192Z,8.40
2023-01-10T22:12:21.648Z,8.30
2023-01-10T22:15:07.934Z,8.10
2023-01-10T22:17:53.909Z,7.90
2023-01-10T22:20:43.470Z,8.00
2023-01-10T22:23:30.764Z,7.90
2023-01-10T22:26:16.499Z,7.80
2023-01-10T22:29:02.280Z,7.90
2023-01-10T22:31:48.913Z,8.00
2023-01-10T22:34:34.467Z,8.00
2023-01-10T22:37:19.999Z,8.10
2023-01-10T22:40:06.580Z,8.30
2023-01-10T22:42:52.561Z,8.40
2023-01-10T22:45:44.839Z,8.30
2023-01-10T22:48:30.658Z,8.30
2023-01-10T22:51:18.016Z,8.20
2023-01-10T22:54:04.476Z,8.20
2023-01-10T22:56:50.092Z,8.20
2023-01-10T22:59:36.974Z,8.10
2023-01-10T23:02:22.762Z,8.10
2023-01-10T23:05:08.909Z,8.20
2023-01-10T23:07:54.614Z,8.20
2023-01-10T23:10:40.671Z,9.00
2023-01-10T23:13:26.445Z,8.40
2023-01-10T23:16:22.000Z,8.50
2023-01-10T23:19:07.671Z,8.60
2023-01-10T23:21:53.497Z,8.60
2023-01-10T23:24:39.355Z,8.60
2023-01-10T23:27:24.853Z,8.50
2023-01-10T23:30:12.328Z,7.70
2023-01-10T23:32:58.062Z,7.80
2023-01-10T23:35:43.674Z,8.50
2023-01-10T23:38:29.791Z,8.60
2023-01-10T23:41:16.298Z,8.80
2023-01-10T23:44:02.231Z,8.60
2023-01-10T23:46:48.086Z,7.90
2023-01-10T23:49:34.875Z,7.40
2023-01-10T23:52:20.401Z,7.10
2023-01-10T23:55:06.432Z,7.10
2023-01-10T23:57:51.989Z,7.40
